createdAt,value
2019-05-13T00:02:04.533Z,99.90
2019-05-13T00:04:54.437Z,99.90
2019-05-13T00:07:44.127Z,99.90
2019-05-13T00:10:34.977Z,99.90
2019-05-13T00:13:24.546Z,99.90
2019-05-13T00:16:14.289Z,99.90
2019-05-13T00:19:04.163Z,99.90
2019-05-13T00:21:54.626Z,99.90
2019-05-13T00:24:44.419Z,99.90
2019-05-13T00:27:34.647Z,99.90
2019-05-13T00:30:23.852Z,99.90
2019-05-13T00:33:14.036Z,99.90
2019-05-13T00:36:04.121Z,99.90
2019-05-13T00:38:53.804Z,99.90
2019-05-13T00:41:44.242Z,99.90
2019-05-13T00:44:33.802Z,99.90
2019-05-13T00:47:23.789Z,99.90
2019-05-13T00:50:14.175Z,99.90
2019-05-13T00:53:04.706Z,99.90
2019-05-13T00:55:54.366Z,99.90
2019-05-13T00:58:43.705Z,99.90
2019-05-13T01:01:33.531Z,99.90
2019-05-13T01:04:23.317Z,99.90
2019-05-13T01:07:24.840Z,99.90
2019-05-13T01:10:04.222Z,99.90
2019-05-13T01:12:53.963Z,99.90
2019-05-13T01:15:44.354Z,99.90
2019-05-13T01:18:34.242Z,99.90
2019-05-13T01:21:24.035Z,99.90
2019-05-13T01:24:14.391Z,99.90
2019-05-13T01:27:04.158Z,99.90
2019-05-13T01:29:53.549Z,99.90
2019-05-13T01:32:44.880Z,99.90
2019-05-13T01:35:34.210Z,99.90
2019-05-13T01:38:24.204Z,99.90
2019-05-13T01:41:13.773Z,99.90
2019-05-13T01:44:04.039Z,99.90
2019-05-13T01:46:53.737Z,99.90
2019-05-13T01:49:40.788Z,99.90
2019-05-13T01:52:29.240Z,99.90
2019-05-13T01:55:18.590Z,99.90
2019-05-13T01:58:07.845Z,99.90
2019-05-13T02:00:57.360Z,99.90
2019-05-13T02:03:27.798Z,99.90
2019-05-13T02:06:16.647Z,99.90
2019-05-13T02:09:07.311Z,99.90
2019-05-13T02:11:56.620Z,99.90
2019-05-13T02:14:46.316Z,99.90
2019-05-13T02:17:35.586Z,99.90
2019-05-13T02:20:24.840Z,99.90
2019-05-13T02:23:14.513Z,99.90
2019-05-13T02:26:04.587Z,99.90
2019-05-13T02:28:54.191Z,99.90
2019-05-13T02:31:50.897Z,99.90
2019-05-13T02:34:36.822Z,99.90
2019-05-13T02:37:29.499Z,99.90
2019-05-13T02:40:17.085Z,99.90
2019-05-13T02:42:47.322Z,99.90
2019-05-13T02:45:37.109Z,99.90
2019-05-13T02:48:26.153Z,99.90
2019-05-13T02:51:15.557Z,99.90
2019-05-13T02:54:05.084Z,99.90
2019-05-13T02:56:54.182Z,99.90
2019-05-13T02:59:43.306Z,99.90
2019-05-13T03:02:33.108Z,99.90
2019-05-13T03:05:22.101Z,99.90
2019-05-13T03:08:12.741Z,99.90
2019-05-13T03:11:03.109Z,99.90
2019-05-13T03:13:53.236Z,99.90
2019-05-13T03:17:04.157Z,99.90
2019-05-13T03:19:53.506Z,99.90
2019-05-13T03:22:43.889Z,99.90
2019-05-13T03:25:33.449Z,99.90
2019-05-13T03:28:22.882Z,99.90
2019-05-13T03:31:16.852Z,99.90
2019-05-13T03:34:06.906Z,99.90
2019-05-13T03:36:57.374Z,99.90
2019-05-13T03:39:47.729Z,99.90
2019-05-13T03:42:42.295Z,99.90
2019-05-13T03:45:32.715Z,99.90
2019-05-13T03:48:23.642Z,99.90
2019-05-13T03:51:13.824Z,99.90
2019-05-13T03:54:03.411Z,99.90
2019-05-13T03:56:53.215Z,99.90
2019-05-13T03:59:43.585Z,99.90
2019-05-13T04:02:33.445Z,99.90
2019-05-13T04:05:23.778Z,99.90
2019-05-13T04:08:13.502Z,99.90
2019-05-13T04:11:03.130Z,99.90
2019-05-13T04:13:53.258Z,99.90
2019-05-13T04:16:32.066Z,99.90
2019-05-13T04:19:22.924Z,99.90
2019-05-13T04:22:12.951Z,99.90
2019-05-13T04:25:02.455Z,99.90
2019-05-13T04:27:52.371Z,99.90
2019-05-13T04:30:43.538Z,99.90
2019-05-13T04:33:33.777Z,99.90
2019-05-13T04:36:23.863Z,99.90
2019-05-13T04:39:13.262Z,99.90
2019-05-13T04:42:02.584Z,99.90
2019-05-13T04:44:53.266Z,99.90
2019-05-13T04:47:43.146Z,99.90
2019-05-13T04:50:33.158Z,99.90
2019-05-13T04:53:22.836Z,99.90
2019-05-13T04:56:13.895Z,99.90
2019-05-13T04:59:03.971Z,99.90
2019-05-13T05:02:22.073Z,99.90
2019-05-13T05:05:22.719Z,99.90
2019-05-13T05:08:32.883Z,99.90
2019-05-13T05:11:42.391Z,99.90
2019-05-13T05:14:33.381Z,99.90
2019-05-13T05:17:34.541Z,99.90
2019-05-13T05:20:16.881Z,99.90
2019-05-13T05:23:37.190Z,99.90
2019-05-13T05:26:43.272Z,99.90
2019-05-13T05:29:48.360Z,99.90
2019-05-13T05:33:07.287Z,99.90
2019-05-13T05:36:27.759Z,99.90
2019-05-13T05:39:23.018Z,99.90
2019-05-13T05:42:15.752Z,99.90
2019-05-13T05:44:53.066Z,99.90
2019-05-13T05:47:44.306Z,99.90
2019-05-13T05:50:35.762Z,99.90
2019-05-13T05:53:29.074Z,99.90
2019-05-13T05:56:02.338Z,99.90
2019-05-13T05:58:33.793Z,99.90
2019-05-13T06:01:04.730Z,99.90
2019-05-13T06:03:37.104Z,99.90
2019-05-13T06:06:27.360Z,99.90
2019-05-13T06:09:16.924Z,99.90
2019-05-13T06:12:06.194Z,99.90
2019-05-13T06:14:55.821Z,99.90
2019-05-13T06:17:45.546Z,99.90
2019-05-13T06:20:34.948Z,99.90
2019-05-13T06:23:24.854Z,99.90
2019-05-13T06:25:55.583Z,99.90
2019-05-13T06:28:44.719Z,99.90
2019-05-13T06:31:16.311Z,99.90
2019-05-13T06:33:46.856Z,99.90
2019-05-13T06:36:37.137Z,99.90
2019-05-13T06:39:25.972Z,99.90
2019-05-13T06:42:15.642Z,99.90
2019-05-13T06:45:05.102Z,99.90
2019-05-13T06:47:54.610Z,99.90
2019-05-13T06:50:43.859Z,99.90
2019-05-13T06:53:33.001Z,99.90
2019-05-13T06:56:22.502Z,99.90
2019-05-13T06:59:22.315Z,99.90
2019-05-13T07:01:55.090Z,99.90
2019-05-13T07:04:44.524Z,99.90
2019-05-13T07:07:33.410Z,99.90
2019-05-13T07:10:23.136Z,99.90
2019-05-13T07:13:12.200Z,99.90
2019-05-13T07:16:01.514Z,99.90
2019-05-13T07:18:52.248Z,99.90
2019-05-13T07:21:41.740Z,99.90
2019-05-13T07:24:32.316Z,99.90
2019-05-13T07:27:23.113Z,99.90
2019-05-13T07:30:13.446Z,99.90
2019-05-13T07:33:02.614Z,99.90
2019-05-13T07:35:58.041Z,99.90
2019-05-13T07:38:44.113Z,99.90
2019-05-13T07:41:39.298Z,99.90
2019-05-13T07:44:24.082Z,99.90
2019-05-13T07:47:15.800Z,99.90
2019-05-13T07:50:04.342Z,99.90
2019-05-13T07:52:53.747Z,99.90
2019-05-13T07:55:24.131Z,99.90
2019-05-13T07:58:13.926Z,99.90
2019-05-13T08:01:03.011Z,99.90
2019-05-13T08:03:51.975Z,99.90
2019-05-13T08:06:41.738Z,99.90
2019-05-13T08:09:32.001Z,99.90
2019-05-13T08:12:10.028Z,99.90
2019-05-13T08:14:54.132Z,99.90
2019-05-13T08:17:47.306Z,99.90
2019-05-13T08:20:34.022Z,99.90
2019-05-13T08:23:23.209Z,99.90
2019-05-13T08:26:12.600Z,99.90
2019-05-13T08:29:05.592Z,99.90
2019-05-13T08:31:52.001Z,99.90
2019-05-13T08:34:41.874Z,99.90
2019-05-13T08:37:32.133Z,99.90
2019-05-13T08:40:23.426Z,99.90
2019-05-13T08:43:12.813Z,99.90
2019-05-13T08:46:03.118Z,99.90
2019-05-13T08:48:52.056Z,99.90
2019-05-13T08:51:42.232Z,99.90
2019-05-13T08:54:13.102Z,99.90
2019-05-13T08:57:03.076Z,99.90
2019-05-13T08:59:52.239Z,99.90
2019-05-13T09:02:42.149Z,99.90
2019-05-13T09:05:31.934Z,99.90
2019-05-13T09:08:22.472Z,99.90
2019-05-13T09:11:12.120Z,99.90
2019-05-13T09:14:02.318Z,99.90
2019-05-13T09:16:52.515Z,99.90
2019-05-13T09:19:42.663Z,99.90
2019-05-13T09:22:31.929Z,99.90
2019-05-13T09:25:21.604Z,99.90
2019-05-13T09:28:12.518Z,99.90
2019-05-13T09:31:02.042Z,99.90
2019-05-13T09:33:52.205Z,99.90
2019-05-13T09:36:41.837Z,99.90
2019-05-13T09:39:32.500Z,99.90
2019-05-13T09:42:22.084Z,99.90
2019-05-13T09:45:12.313Z,99.90
2019-05-13T09:48:01.695Z,99.90
2019-05-13T09:50:51.813Z,99.90
2019-05-13T09:53:41.667Z,97.50
2019-05-13T09:56:12.333Z,97.50
2019-05-13T09:58:42.951Z,98.20
2019-05-13T10:01:13.382Z,98.90
2019-05-13T10:03:53.960Z,99.90
2019-05-13T10:06:15.717Z,99.90
2019-05-13T10:08:46.100Z,99.90
2019-05-13T10:11:16.278Z,97.80
2019-05-13T10:13:46.653Z,96.00
2019-05-13T10:16:35.829Z,95.60
2019-05-13T10:19:25.233Z,95.10
2019-05-13T10:22:14.607Z,96.30
2019-05-13T10:25:03.655Z,92.40
2019-05-13T10:27:53.417Z,92.80
2019-05-13T10:30:43.728Z,93.80
2019-05-13T10:33:33.702Z,94.70
2019-05-13T10:36:22.653Z,94.30
2019-05-13T10:39:12.570Z,93.20
2019-05-13T10:42:03.643Z,93.20
2019-05-13T10:44:52.797Z,91.80
2019-05-13T10:47:42.406Z,91.40
2019-05-13T10:50:32.179Z,91.60
2019-05-13T10:53:22.130Z,91.30
2019-05-13T10:56:11.416Z,90.60
2019-05-13T10:58:44.736Z,89.70
2019-05-13T11:01:34.316Z,88.70
2019-05-13T11:04:23.483Z,87.50
2019-05-13T11:07:13.038Z,89.40
2019-05-13T11:10:02.842Z,86.50
2019-05-13T11:12:52.561Z,82.00
2019-05-13T11:15:23.134Z,81.30
2019-05-13T11:17:53.417Z,80.30
2019-05-13T11:20:23.564Z,82.90
2019-05-13T11:22:54.408Z,80.40
2019-05-13T11:25:27.273Z,78.40
2019-05-13T11:27:58.474Z,78.70
2019-05-13T11:30:31.798Z,78.30
2019-05-13T11:33:02.262Z,78.20
2019-05-13T11:35:33.293Z,74.60
2019-05-13T11:38:03.608Z,71.80
2019-05-13T11:40:33.703Z,70.80
2019-05-13T11:43:03.929Z,69.20
2019-05-13T11:45:34.255Z,64.70
2019-05-13T11:48:04.820Z,68.00
2019-05-13T11:50:35.250Z,67.70
2019-05-13T11:53:30.235Z,61.80
2019-05-13T11:55:37.866Z,63.20
2019-05-13T11:58:08.538Z,62.30
2019-05-13T12:00:53.055Z,65.70
2019-05-13T12:03:23.383Z,63.20
2019-05-13T12:05:54.193Z,64.40
2019-05-13T12:08:24.684Z,65.60
2019-05-13T12:10:55.134Z,67.60
2019-05-13T12:13:25.247Z,63.70
2019-05-13T12:15:56.038Z,66.50
2019-05-13T12:18:26.173Z,63.70
2019-05-13T12:21:15.273Z,59.60
2019-05-13T12:24:10.650Z,59.30
2019-05-13T12:26:36.550Z,59.20
2019-05-13T12:29:07.557Z,60.80
2019-05-13T12:31:38.935Z,61.40
2019-05-13T12:34:12.701Z,60.70
2019-05-13T12:36:43.236Z,59.20
2019-05-13T12:39:14.403Z,61.40
2019-05-13T12:41:45.225Z,57.30
2019-05-13T12:44:15.810Z,57.30
2019-05-13T12:46:50.153Z,57.00
2019-05-13T12:49:18.369Z,56.90
2019-05-13T12:51:51.108Z,57.10
2019-05-13T12:54:23.686Z,54.60
2019-05-13T12:56:53.837Z,53.30
2019-05-13T12:59:24.155Z,52.70
2019-05-13T13:01:55.021Z,52.80
2019-05-13T13:04:25.337Z,52.00
2019-05-13T13:06:55.658Z,52.50
2019-05-13T13:09:26.534Z,51.40
2019-05-13T13:11:57.058Z,53.40
2019-05-13T13:14:39.835Z,50.00
2019-05-13T13:17:12.822Z,49.60
2019-05-13T13:20:08.968Z,49.90
2019-05-13T13:22:52.694Z,48.50
2019-05-13T13:25:43.476Z,47.80
2019-05-13T13:28:34.160Z,48.30
2019-05-13T13:31:04.769Z,50.50
2019-05-13T13:33:34.857Z,49.80
2019-05-13T13:36:06.386Z,49.40
2019-05-13T13:38:37.062Z,45.90
2019-05-13T13:41:07.419Z,47.20
2019-05-13T13:43:56.762Z,45.90
2019-05-13T13:46:49.501Z,46.20
2019-05-13T13:49:36.404Z,45.70
2019-05-13T13:52:26.028Z,47.30
2019-05-13T13:55:16.378Z,48.70
2019-05-13T13:58:06.064Z,48.90
2019-05-13T14:00:47.391Z,47.70
2019-05-13T14:03:12.180Z,48.60
2019-05-13T14:06:05.719Z,48.00
2019-05-13T14:08:51.940Z,45.00
2019-05-13T14:11:42.020Z,46.10
2019-05-13T14:14:32.030Z,47.90
2019-05-13T14:17:21.975Z,46.30
2019-05-13T14:20:11.906Z,44.10
2019-05-13T14:23:02.817Z,44.00
2019-05-13T14:25:52.978Z,43.30
2019-05-13T14:28:42.719Z,44.20
2019-05-13T14:31:32.359Z,44.80
2019-05-13T14:34:22.146Z,45.40
2019-05-13T14:37:11.717Z,45.30
2019-05-13T14:40:02.461Z,43.20
2019-05-13T14:42:52.775Z,44.40
2019-05-13T14:45:42.096Z,44.20
2019-05-13T14:48:32.824Z,44.10
2019-05-13T14:51:21.923Z,43.90
2019-05-13T14:54:11.232Z,43.90
2019-05-13T14:57:02.343Z,42.50
2019-05-13T14:59:51.960Z,42.50
2019-05-13T15:02:42.101Z,44.30
2019-05-13T15:05:31.583Z,44.30
2019-05-13T15:08:25.553Z,43.40
2019-05-13T15:11:12.590Z,44.70
2019-05-13T15:14:07.172Z,43.60
2019-05-13T15:17:02.871Z,43.60
2019-05-13T15:19:44.962Z,42.50
2019-05-13T15:22:34.856Z,42.40
2019-05-13T15:25:24.144Z,42.80
2019-05-13T15:28:14.215Z,42.60
2019-05-13T15:31:04.330Z,42.90
2019-05-13T15:33:34.635Z,43.20
2019-05-13T15:36:23.307Z,43.10
2019-05-13T15:39:12.035Z,43.20
2019-05-13T15:42:02.177Z,44.00
2019-05-13T15:44:44.729Z,44.20
2019-05-13T15:47:34.035Z,43.30
2019-05-13T15:50:23.154Z,42.50
2019-05-13T15:53:12.997Z,42.70
2019-05-13T15:56:02.849Z,41.50
2019-05-13T15:58:53.264Z,41.20
2019-05-13T16:01:42.841Z,40.30
2019-05-13T16:04:32.313Z,41.00
2019-05-13T16:07:21.886Z,41.70
2019-05-13T16:10:12.510Z,40.40
2019-05-13T16:13:02.454Z,40.80
2019-05-13T16:15:51.698Z,40.60
2019-05-13T16:18:41.980Z,41.20
2019-05-13T16:21:31.941Z,42.70
2019-05-13T16:24:21.569Z,40.90
2019-05-13T16:26:52.286Z,40.80
2019-05-13T16:29:42.270Z,39.90
2019-05-13T16:32:31.938Z,41.00
2019-05-13T16:35:21.573Z,40.40
2019-05-13T16:38:11.255Z,39.30
2019-05-13T16:41:00.290Z,40.30
2019-05-13T16:43:49.403Z,40.20
2019-05-13T16:46:38.272Z,39.30
2019-05-13T16:49:27.883Z,40.40
2019-05-13T16:52:16.984Z,41.10
2019-05-13T16:54:47.216Z,41.50
2019-05-13T16:57:36.043Z,40.90
2019-05-13T17:00:25.111Z,40.80
2019-05-13T17:03:15.076Z,40.90
2019-05-13T17:06:04.606Z,40.50
2019-05-13T17:08:53.515Z,40.90
2019-05-13T17:11:43.144Z,41.00
2019-05-13T17:14:32.968Z,40.80
2019-05-13T17:17:22.396Z,39.60
2019-05-13T17:20:12.673Z,40.30
2019-05-13T17:23:02.778Z,39.80
2019-05-13T17:25:52.075Z,40.40
2019-05-13T17:28:41.663Z,40.50
2019-05-13T17:31:32.525Z,40.40
2019-05-13T17:34:22.557Z,40.20
2019-05-13T17:37:11.839Z,40.10
2019-05-13T17:40:02.070Z,39.60
2019-05-13T17:42:51.304Z,39.90
2019-05-13T17:45:41.713Z,41.10
2019-05-13T17:48:33.123Z,40.30
2019-05-13T17:51:22.541Z,40.20
2019-05-13T17:53:53.094Z,41.20
2019-05-13T17:56:42.423Z,40.80
2019-05-13T17:59:34.157Z,40.90
2019-05-13T18:02:23.070Z,41.30
2019-05-13T18:05:12.304Z,42.30
2019-05-13T18:07:51.200Z,41.90
2019-05-13T18:10:22.564Z,42.10
2019-05-13T18:12:53.397Z,42.20
2019-05-13T18:15:23.876Z,43.40
2019-05-13T18:17:54.365Z,43.50
2019-05-13T18:20:24.706Z,43.60
2019-05-13T18:22:55.700Z,44.00
2019-05-13T18:25:26.272Z,44.90
2019-05-13T18:27:56.450Z,44.60
2019-05-13T18:30:26.698Z,43.90
2019-05-13T18:32:57.506Z,44.10
2019-05-13T18:35:28.011Z,43.80
2019-05-13T18:37:58.635Z,44.30
2019-05-13T18:40:31.328Z,44.50
2019-05-13T18:43:01.861Z,44.80
2019-05-13T18:45:52.662Z,45.20
2019-05-13T18:48:23.451Z,44.80
2019-05-13T18:50:53.904Z,45.30
2019-05-13T18:53:24.522Z,45.80
2019-05-13T18:55:55.358Z,46.40
2019-05-13T18:58:26.915Z,46.90
2019-05-13T19:00:57.442Z,46.80
2019-05-13T19:03:27.898Z,47.20
2019-05-13T19:05:59.014Z,47.40
2019-05-13T19:08:31.878Z,47.40
2019-05-13T19:11:01.763Z,47.70
2019-05-13T19:13:32.685Z,47.80
2019-05-13T19:16:03.178Z,47.80
2019-05-13T19:18:52.462Z,48.50
2019-05-13T19:21:22.821Z,48.20
2019-05-13T19:23:53.266Z,48.50
2019-05-13T19:26:23.790Z,48.80
2019-05-13T19:28:54.083Z,49.30
2019-05-13T19:31:24.873Z,49.50
2019-05-13T19:33:55.095Z,49.70
2019-05-13T19:36:26.447Z,50.10
2019-05-13T19:38:56.846Z,50.40
2019-05-13T19:41:27.580Z,50.40
2019-05-13T19:43:58.055Z,50.00
2019-05-13T19:46:31.248Z,50.00
2019-05-13T19:49:01.538Z,50.30
2019-05-13T19:51:52.154Z,50.30
2019-05-13T19:54:42.105Z,50.50
2019-05-13T19:57:31.774Z,50.70
2019-05-13T20:00:18.475Z,50.60
2019-05-13T20:03:07.927Z,50.50
2019-05-13T20:05:57.392Z,50.60
2019-05-13T20:08:46.392Z,51.00
2019-05-13T20:11:35.840Z,50.90
2019-05-13T20:14:25.167Z,50.70
2019-05-13T20:17:14.766Z,51.10
2019-05-13T20:20:05.147Z,51.30
2019-05-13T20:22:54.661Z,51.30
2019-05-13T20:25:43.798Z,51.50
2019-05-13T20:28:33.167Z,51.80
2019-05-13T20:31:22.803Z,52.00
2019-05-13T20:34:12.273Z,51.80
2019-05-13T20:36:42.514Z,52.10
2019-05-13T20:39:13.060Z,52.30
2019-05-13T20:42:02.732Z,51.90
2019-05-13T20:44:52.051Z,52.20
2019-05-13T20:47:42.100Z,52.50
2019-05-13T20:50:31.767Z,52.20
2019-05-13T20:53:21.810Z,52.40
2019-05-13T20:56:11.318Z,52.30
2019-05-13T20:59:01.017Z,52.40
2019-05-13T21:01:51.187Z,52.40
2019-05-13T21:04:40.891Z,52.60
2019-05-13T21:07:32.095Z,52.70
2019-05-13T21:10:21.696Z,52.80
2019-05-13T21:13:12.224Z,53.00
2019-05-13T21:15:45.007Z,53.10
2019-05-13T21:18:34.439Z,53.30
2019-05-13T21:21:23.364Z,53.60
2019-05-13T21:24:12.657Z,53.60
2019-05-13T21:27:01.979Z,53.90
2019-05-13T21:29:51.934Z,53.90
2019-05-13T21:32:41.078Z,54.20
2019-05-13T21:35:31.618Z,54.40
2019-05-13T21:38:22.252Z,54.60
2019-05-13T21:41:12.249Z,54.70
2019-05-13T21:44:01.565Z,55.20
2019-05-13T21:46:51.540Z,55.00
2019-05-13T21:49:42.373Z,55.20
2019-05-13T21:52:32.366Z,55.50
2019-05-13T21:55:22.132Z,55.70
2019-05-13T21:58:14.209Z,56.10
2019-05-13T22:01:03.032Z,56.10
2019-05-13T22:03:52.227Z,56.60
2019-05-13T22:06:41.619Z,56.60
2019-05-13T22:09:31.861Z,56.70
2019-05-13T22:12:21.709Z,57.00
2019-05-13T22:15:11.499Z,57.40
2019-05-13T22:18:01.922Z,57.60
2019-05-13T22:20:53.597Z,57.80
2019-05-13T22:23:41.406Z,58.40
2019-05-13T22:26:31.223Z,58.70
2019-05-13T22:29:22.946Z,58.90
2019-05-13T22:32:11.493Z,59.20
2019-05-13T22:35:01.917Z,59.70
2019-05-13T22:37:51.581Z,60.00
2019-05-13T22:40:42.007Z,60.40
2019-05-13T22:43:32.014Z,61.20
2019-05-13T22:46:22.094Z,61.50
2019-05-13T22:49:11.623Z,62.00
2019-05-13T22:52:00.565Z,62.50
2019-05-13T22:54:51.906Z,63.10
2019-05-13T22:57:42.037Z,63.70
2019-05-13T23:00:31.711Z,65.00
2019-05-13T23:03:20.990Z,65.00
2019-05-13T23:06:12.077Z,65.70
2019-05-13T23:09:01.861Z,66.60
2019-05-13T23:11:51.179Z,67.70
2019-05-13T23:14:41.397Z,68.40
2019-05-13T23:17:32.065Z,69.50
2019-05-13T23:20:21.274Z,70.60
2019-05-13T23:23:11.807Z,71.70
2019-05-13T23:26:01.506Z,72.60
2019-05-13T23:28:52.176Z,73.70
2019-05-13T23:31:41.587Z,75.10
2019-05-13T23:34:31.771Z,76.30
2019-05-13T23:37:21.848Z,77.70
2019-05-13T23:40:11.853Z,79.30
2019-05-13T23:43:02.135Z,81.10
2019-05-13T23:45:52.113Z,83.10
2019-05-13T23:48:42.242Z,85.00
2019-05-13T23:51:32.236Z,86.70
2019-05-13T23:54:22.301Z,88.80
2019-05-13T23:57:12.027Z,91.20
